createdAt,value
2018-12-20T00:01:42.484Z,118045.80
2018-12-20T00:06:35.861Z,118045.80
2018-12-20T00:11:29.339Z,118045.80
2018-12-20T00:16:22.947Z,118045.80
2018-12-20T00:21:16.300Z,118045.80
2018-12-20T00:26:09.539Z,118045.80
2018-12-20T00:31:02.841Z,118045.80
2018-12-20T00:35:56.221Z,118045.80
2018-12-20T00:40:49.425Z,118045.80
2018-12-20T00:45:42.643Z,118045.80
2018-12-20T00:50:35.863Z,118045.80
2018-12-20T00:55:29.182Z,118045.80
2018-12-20T01:00:22.741Z,118045.80
2018-12-20T01:05:16.113Z,118045.80
2018-12-20T01:10:10.142Z,118045.80
2018-12-20T01:15:05.160Z,118045.80
2018-12-20T01:19:58.625Z,118045.80
2018-12-20T01:24:51.983Z,118045.80
2018-12-20T01:29:45.338Z,118045.80
2018-12-20T01:34:38.655Z,118045.80
2018-12-20T01:39:32.011Z,118045.80
2018-12-20T01:44:25.306Z,118045.80
2018-12-20T01:49:18.587Z,118045.80
2018-12-20T01:54:11.929Z,118045.80
2018-12-20T01:59:05.428Z,118045.80
2018-12-20T02:03:58.836Z,118045.80
2018-12-20T02:08:52.168Z,118045.80
2018-12-20T02:13:45.579Z,118045.80
2018-12-20T02:18:38.871Z,118045.80
2018-12-20T02:23:32.163Z,118045.80
2018-12-20T02:28:25.587Z,118045.80
2018-12-20T02:33:18.821Z,118045.80
2018-12-20T02:38:12.197Z,118045.80
2018-12-20T02:43:05.758Z,118045.80
2018-12-20T02:50:32.703Z,100641.78
2018-12-20T02:55:26.003Z,100645.56
2018-12-20T03:00:19.360Z,100638.76
2018-12-20T03:05:12.745Z,100640.21
2018-12-20T03:10:06.705Z,100638.76
2018-12-20T03:14:59.984Z,100635.90
2018-12-20T03:19:53.374Z,100635.09
2018-12-20T03:24:46.991Z,100635.94
2018-12-20T03:29:40.371Z,100632.03
2018-12-20T03:34:33.658Z,100625.62
2018-12-20T03:39:26.914Z,100627.11
2018-12-20T03:44:20.123Z,100616.59
2018-12-20T03:49:13.395Z,100614.27
2018-12-20T03:54:06.611Z,100615.95
2018-12-20T03:59:00.082Z,100618.21
2018-12-20T04:03:53.443Z,100620.86
2018-12-20T04:08:46.718Z,100621.17
2018-12-20T04:13:39.967Z,100623.19
2018-12-20T04:18:33.339Z,100622.80
2018-12-20T04:23:26.571Z,100628.27
2018-12-20T04:28:19.913Z,100626.54
2018-12-20T04:33:13.207Z,100624.70
2018-12-20T04:38:06.538Z,100624.94
2018-12-20T04:42:59.785Z,100626.63
2018-12-20T04:47:53.089Z,100633.36
2018-12-20T04:52:46.300Z,100634.45
2018-12-20T04:57:39.548Z,100636.50
2018-12-20T05:02:32.814Z,100628.45
2018-12-20T05:07:26.049Z,100640.58
2018-12-20T05:12:19.251Z,100635.91
2018-12-20T05:17:12.501Z,100634.75
2018-12-20T05:22:05.980Z,100636.36
2018-12-20T05:26:59.847Z,100637.53
2018-12-20T05:31:53.042Z,100641.02
2018-12-20T05:36:46.436Z,100642.66
2018-12-20T05:41:39.845Z,100643.61
2018-12-20T05:46:33.179Z,100649.61
2018-12-20T05:51:26.398Z,100647.17
2018-12-20T05:56:19.862Z,100654.37
2018-12-20T06:01:13.446Z,100661.98
2018-12-20T06:06:06.826Z,100667.59
2018-12-20T06:11:00.137Z,100665.33
2018-12-20T06:15:53.432Z,100666.86
2018-12-20T06:20:46.743Z,100676.31
2018-12-20T06:25:39.969Z,100676.84
2018-12-20T06:30:33.211Z,100680.50
2018-12-20T06:35:26.397Z,100681.59
2018-12-20T06:40:19.666Z,100685.05
2018-12-20T06:45:13.858Z,100692.56
2018-12-20T06:50:07.251Z,100695.69
2018-12-20T06:55:00.484Z,100700.91
2018-12-20T06:59:53.737Z,100700.85
2018-12-20T07:04:46.955Z,100706.48
2018-12-20T07:09:40.145Z,100703.09
2018-12-20T07:14:33.380Z,100697.55
2018-12-20T07:19:27.251Z,100704.98
2018-12-20T07:24:20.690Z,100709.97
2018-12-20T07:29:13.873Z,100712.69
2018-12-20T07:34:07.292Z,100706.48
2018-12-20T07:39:00.577Z,100705.56
2018-12-20T07:43:53.822Z,100707.18
2018-12-20T07:48:47.011Z,100718.42
2018-12-20T07:53:40.249Z,100720.48
2018-12-20T07:58:33.459Z,100721.30
2018-12-20T08:03:26.640Z,100725.80
2018-12-20T08:08:19.848Z,100727.66
2018-12-20T08:13:13.093Z,100731.20
2018-12-20T08:18:06.304Z,100736.36
2018-12-20T08:22:59.563Z,100743.16
2018-12-20T08:27:52.765Z,100743.30
2018-12-20T08:32:45.973Z,100752.19
2018-12-20T08:37:39.198Z,100753.16
2018-12-20T08:42:32.399Z,100759.77
2018-12-20T08:47:25.665Z,100762.78
2018-12-20T08:52:18.871Z,100763.41
2018-12-20T08:57:12.143Z,100765.52
2018-12-20T09:02:05.356Z,100766.06
2018-12-20T09:06:58.672Z,100767.56
2018-12-20T09:11:52.055Z,100762.55
2018-12-20T09:16:45.252Z,100767.12
2018-12-20T09:21:38.804Z,100773.80
2018-12-20T09:26:32.571Z,100775.69
2018-12-20T09:31:25.810Z,100785.41
2018-12-20T09:36:19.009Z,100790.94
2018-12-20T09:41:12.783Z,100790.98
2018-12-20T09:46:06.420Z,100784.69
2018-12-20T09:50:59.663Z,100787.70
2018-12-20T09:55:52.944Z,100790.55
2018-12-20T10:00:46.928Z,100789.48
2018-12-20T10:05:40.251Z,100782.33
2018-12-20T10:10:33.576Z,100788.03
2018-12-20T10:15:26.807Z,100777.61
2018-12-20T10:20:20.041Z,100773.47
2018-12-20T10:25:13.335Z,100774.14
2018-12-20T10:30:09.309Z,100769.25
2018-12-20T10:35:02.704Z,100770.89
2018-12-20T10:39:55.928Z,100770.34
2018-12-20T10:44:49.164Z,100763.70
2018-12-20T10:49:42.426Z,100765.20
2018-12-20T10:54:36.052Z,100766.00
2018-12-20T10:59:29.395Z,100765.06
2018-12-20T11:04:35.958Z,100757.50
2018-12-20T11:09:34.884Z,100757.89
2018-12-20T11:14:28.101Z,100758.77
2018-12-20T11:19:21.371Z,100738.33
2018-12-20T11:24:14.572Z,100718.55
2018-12-20T11:29:07.988Z,100713.80
2018-12-20T11:34:01.225Z,100717.19
2018-12-20T11:38:54.616Z,100710.52
2018-12-20T11:43:47.832Z,100710.41
2018-12-20T11:48:41.097Z,100704.26
2018-12-20T11:53:34.413Z,100714.30
2018-12-20T11:58:28.448Z,100709.39
2018-12-20T12:03:22.480Z,100718.80
2018-12-20T12:08:16.011Z,100710.95
2018-12-20T12:13:09.257Z,100711.37
2018-12-20T12:18:02.510Z,100713.00
2018-12-20T12:22:56.323Z,100707.27
2018-12-20T12:27:49.632Z,100700.41
2018-12-20T12:32:42.893Z,100694.87
2018-12-20T12:37:36.111Z,100703.80
2018-12-20T12:42:29.338Z,100700.98
2018-12-20T12:47:28.143Z,100704.36
2018-12-20T12:52:21.394Z,100697.03
2018-12-20T12:57:14.616Z,100701.53
2018-12-20T13:02:07.831Z,100697.89
2018-12-20T13:07:01.253Z,100700.77
2018-12-20T13:11:54.505Z,100701.59
2018-12-20T13:16:48.507Z,100696.44
2018-12-20T13:21:41.762Z,100691.34
2018-12-20T13:26:35.018Z,100694.05
2018-12-20T13:31:29.130Z,100703.97
2018-12-20T13:36:22.324Z,100705.77
2018-12-20T13:41:15.538Z,100705.64
2018-12-20T13:46:08.764Z,100702.48
2018-12-20T13:51:02.026Z,100707.95
2018-12-20T13:55:55.269Z,100703.32
2018-12-20T14:00:48.543Z,100707.15
2018-12-20T14:05:41.818Z,100703.02
2018-12-20T14:10:35.401Z,100705.94
2018-12-20T14:15:28.646Z,100707.45
2018-12-20T14:20:21.946Z,100719.97
2018-12-20T14:25:15.144Z,100714.19
2018-12-20T14:30:09.877Z,100724.08
2018-12-20T14:35:03.195Z,100726.42
2018-12-20T14:39:57.101Z,100726.61
2018-12-20T14:44:50.368Z,100735.72
2018-12-20T14:49:43.588Z,100731.28
2018-12-20T14:54:36.849Z,100729.83
2018-12-20T14:59:30.503Z,100723.77
2018-12-20T15:04:25.753Z,100728.41
2018-12-20T15:09:18.979Z,100722.42
2018-12-20T15:14:13.471Z,100722.11
2018-12-20T15:19:07.226Z,100722.55
2018-12-20T15:24:00.469Z,100729.46
2018-12-20T15:28:53.793Z,100733.36
2018-12-20T15:33:47.011Z,100753.85
2018-12-20T15:38:40.259Z,100756.13
2018-12-20T15:43:33.653Z,100756.50
2018-12-20T15:48:26.891Z,100762.11
2018-12-20T15:53:20.134Z,100771.57
2018-12-20T15:58:13.336Z,100772.09
2018-12-20T16:03:06.541Z,100780.31
2018-12-20T16:08:07.697Z,100780.29
2018-12-20T16:13:00.899Z,100785.41
2018-12-20T16:17:54.130Z,100790.59
2018-12-20T16:22:47.931Z,100794.88
2018-12-20T16:27:41.177Z,100800.85
2018-12-20T16:32:34.421Z,100809.44
2018-12-20T16:37:28.227Z,100808.10
2018-12-20T16:42:21.487Z,100815.43
2018-12-20T16:47:14.734Z,100816.08
2018-12-20T16:52:07.910Z,100813.14
2018-12-20T16:57:01.635Z,100815.00
2018-12-20T17:01:54.893Z,100812.39
2018-12-20T17:06:48.183Z,100822.77
2018-12-20T17:11:41.383Z,100818.58
2018-12-20T17:16:35.259Z,100827.55
2018-12-20T17:21:28.467Z,100825.08
2018-12-20T17:26:21.697Z,100819.70
2018-12-20T17:31:15.790Z,100818.24
2018-12-20T17:36:09.009Z,100824.39
2018-12-20T17:41:02.213Z,100818.96
2018-12-20T17:45:55.383Z,100822.75
2018-12-20T17:50:48.606Z,100823.39
2018-12-20T17:55:44.998Z,100820.59
2018-12-20T18:00:37.486Z,100813.03
2018-12-20T18:05:31.506Z,100815.48
2018-12-20T18:10:24.765Z,100820.61
2018-12-20T18:15:18.022Z,100820.78
2018-12-20T18:20:11.342Z,100812.55
2018-12-20T18:25:05.807Z,100826.80
2018-12-20T18:29:59.044Z,100822.98
2018-12-20T18:34:52.306Z,100815.80
2018-12-20T18:39:45.503Z,100828.91
2018-12-20T18:44:39.432Z,100826.08
2018-12-20T18:49:32.654Z,100830.16
2018-12-20T18:54:25.955Z,100841.19
2018-12-20T18:59:19.166Z,100847.19
2018-12-20T19:04:12.397Z,100848.26
2018-12-20T19:09:06.703Z,100847.33
2018-12-20T19:13:59.893Z,100844.01
2018-12-20T19:18:53.124Z,100839.50
2018-12-20T19:23:46.357Z,100846.00
2018-12-20T19:28:39.641Z,100841.44
2018-12-20T19:33:32.951Z,100837.20
2018-12-20T19:38:26.152Z,100831.57
2018-12-20T19:43:19.410Z,100836.05
2018-12-20T19:48:12.628Z,100838.78
2018-12-20T19:53:06.025Z,100840.39
2018-12-20T19:57:59.281Z,100844.25
2018-12-20T20:02:52.480Z,100844.80
2018-12-20T20:07:45.650Z,100841.67
2018-12-20T20:12:39.399Z,100848.59
2018-12-20T20:17:32.611Z,100842.92
2018-12-20T20:22:25.841Z,100835.02
2018-12-20T20:27:19.080Z,100821.55
2018-12-20T20:32:12.288Z,100815.34
2018-12-20T20:37:05.514Z,100814.11
2018-12-20T20:41:59.516Z,100812.60
2018-12-20T20:46:52.730Z,100808.06
2018-12-20T20:51:45.940Z,100816.06
2018-12-20T20:56:39.218Z,100817.61
2018-12-20T21:01:32.438Z,100819.21
2018-12-20T21:06:26.424Z,100831.84
2018-12-20T21:11:19.664Z,100833.73
2018-12-20T21:16:12.847Z,100836.40
2018-12-20T21:21:06.065Z,100828.73
2018-12-20T21:25:59.283Z,100828.69
2018-12-20T21:30:52.502Z,100816.76
2018-12-20T21:35:45.777Z,100816.26
2018-12-20T21:40:38.998Z,100814.33
2018-12-20T21:45:32.242Z,100812.11
2018-12-20T21:50:25.484Z,100815.20
2018-12-20T21:55:18.705Z,100822.38
2018-12-20T22:00:12.106Z,100828.20
2018-12-20T22:05:06.545Z,100825.84
2018-12-20T22:09:59.778Z,100826.02
2018-12-20T22:14:53.031Z,100828.23
2018-12-20T22:19:46.235Z,100823.98
2018-12-20T22:24:39.450Z,100822.55
2018-12-20T22:29:32.766Z,100819.41
2018-12-20T22:34:25.980Z,100830.50
2018-12-20T22:39:20.305Z,100835.85
2018-12-20T22:44:13.540Z,100834.45
2018-12-20T22:49:06.745Z,100839.63
2018-12-20T22:54:00.473Z,100834.05
2018-12-20T22:58:53.722Z,100836.67
2018-12-20T23:03:46.945Z,100838.66
2018-12-20T23:08:40.248Z,100826.96
2018-12-20T23:13:33.471Z,100818.57
2018-12-20T23:18:26.800Z,100814.28
2018-12-20T23:23:20.651Z,100807.48
2018-12-20T23:28:14.392Z,100804.41
2018-12-20T23:33:07.665Z,100775.86
2018-12-20T23:38:00.894Z,100776.53
2018-12-20T23:42:54.112Z,100781.19
2018-12-20T23:47:47.372Z,100770.76
2018-12-20T23:52:40.767Z,100785.09
2018-12-20T23:57:34.090Z,100779.55
